AIRPORT INFORMATION 17-08-2020 16:18 KNMI / JUMPRUN.NL

FTEHAM AMSTERDAM/SCHIPHOL NLD -3 m.
171100 ... TAF EHAM 171106Z 1712/1818 21005KT 9999 SCT020
    PROB40 TEMPO 1712/1719 21018G28KT 4000 TSRA SCT018CB
    BKN030
    BECM G 1720/1723 6000
    PROB30 1721/1804 4000 BR
    BECMG 1805/1808 9999
    BECMG 1808/1811 24012KT
    PROB30 TEMPO 1809/1814 25012G22KT 6000 SHRA TSRA SCT022CB
    BKN040=

FTEHBK MAASTRICHT/MAASTRICHT- AACHEN
NLD 114 m.
171100 ... TAF EHBK 171111Z 1712/1818 23005KT 9999 SCT030
    PROB30 TEMPO 1712/1720 VRB15G25KT 4000 TSRA SCT025CB
    PROB40 TEMPO 1812/1818 VRB10G20KT 6000 SHRA TSRA SCT020CB=

FTEHEH EINDHOVEN/EINDHOVEN NLD 22 m.
171100 ... TAF EHEH 171109Z 1712/1818 20007KT 9999 SCT025
    TEMPO 1712/1722 VRB15G25KT 3000 SHRA TSRA FEW010 SCT025CB
    BKN035
    PROB 30 TEMPO 1714/1717 VRB22G32KT 1500 +TSRAGR SCT010
    BKN020CB
    BECM G 1718/1721 VRB03KT
    PROB40 1801/1807 4000 BR MIFG
    BECMG 1805/1808 22007KT SCT015
    BECMG 1807/1810 SCT025
    PROB40 TEMPO 1812/1818 VRB10G20KT 4500 - SHRA TSRA SCT022CB
    BKN040=

FTEHGG GRONINGEN/EELDE NLD 5 m.
171100 ... TAF EHGG 171111Z 1712/1818 27005KT 9999 SCT030
    PROB40 TEMPO 1712/1721 6000 SHRA FEW060CB
    PROB30 TEMPO 1717/1721 VRB15G25KT 4000 TSRA SCT025CB
    BECMG 1722/1801 4000 BR
    PROB30 1801/1806 0800 FG
    BECMG 1806/1809 24010G20KT CAVOK
    PROB40 TEMPO 1812/1818 6000 SHRA TSRA FEW020CB
    BECMG 1815/1818 27010KT=

FTEHRD ROTTERDAM/THE HAGUE AIRPORT NLD -5 m.
171100 ... TAF EHRD 171107Z 1712/1818 20007KT 9999 SCT020
    PROB40 TEMPO 1712/1719 21018G28KT 4000 TSRA SCT018CB
    BKN030
    BECM G 1720/1723 6000
    PROB30 1721/1804 4000 BR
    BECMG 1805/1808 9999
    BECMG 1808/1811 24012KT
    PROB30 TEMPO 1809/1814 25012G22KT 6000 SHRA TSRA SCT022CB
    BKN040=

FTEHLE LELYSTAD/LELYSTAD NLD -3 m.
171100 ... TAF EHLE 171107Z 1712/1818 21005KT 6000 SCT015
    BECMG 1712/1713 9999
    PROB40 TEMPO 1713/1720 21018G28KT 4000 TSRA SCT018CB
    BKN030
    BECM G 1720/1723 4000 BCFG
    PROB30 TEMPO 1722/1805 1200
    BECMG 1805/1808 9999 NSW
    BECMG 1808/1811 24010KT
    PROB30 TEMPO 1810/1817 25012G22KT 6000 SHRA TSRA SCT022CB
    BKN040=

ENDOUTPUT
AIRPORT INFORMATION 17-08-2020 16:18 KNMI / JUMPRUN.NL

FCEHDL ARNHEM/DEELEN NLD 48 m.
171300 ... TAF EHDL 171300Z NIL=
FCEHGR GILZE-RIJEN/GILZE-RIJEN NLD 14 m.
171300 ... TAF EHGR 171300Z NIL=
FCEHKD DE KOOY/DE KOOY NLD 1 m.
171300 ... TAF EHKD 171239Z 1713/1801 22004KT CAVOK
    TEMPO 1713/1720 VRB15G25KT 4000 SHRA TSRA FEW010 SCT015
    SCT025CB
    PROB 30 TEMPO 1715/1717 VRB20G32KT 2000 +TSRAGR SCT010
    BKN020CB=

FCEHLW LEEUWARDEN/LEEUWARDEN NLD 1 m.
171300 ... TAF EHLW 171230Z 1713/1801 22005KT CAVOK
    TEMPO 1713/1721 VRB15G25KT 3500 SHRA TSRA FEW010 SCT025CB
    PROB30 TEMPO 1715/1719 VRB20G32KT 2000 +TSRAGR SCT010
    BKN020CB
    BECM G 1721/1724 4000 BR
    PROB40 1800/1801 1500 BCFG=

FCEHVK VOLKEL/VOLKEL NLD 21 m.
171300 ... TAF EHVK 171223Z 1713/1801 21007KT 9999 SCT025
    TEMPO 1713/1722 VRB15G25KT 3000 SHRA TSRA FEW010 SCT025CB
    BKN035
    PROB 30 TEMPO 1714/1717 VRB22G32KT 1500 +TSRAGR SCT010
    BKN020CB
    BECM G 1718/1721 VRB03KT=

FCEHWO WOENSDRECHT/WOENSDRECHT NLD 19 m.
171300 ... TAF EHWO 171300Z NIL=
ENDOUTPUT